Weather at Abbott Northwestern Hospital Heliport

Public forecast

Using degrees Fahrenheit for public forecast. Weather courtesy of forecast.io.

Closest aviation weather report (METAR) to Abbott Northwestern Hospital Heliport

Closest report is Minneapolis–Saint Paul International Airport / Wold–Chamberlain Field, 4.7 nm (8.6 km) SSE. Retrieved 2021/07/24 21:53 UTC (56 minutes ago):

KMSP 242153Z 32015G23KT 8SM FEW050 33/08 A2990 RMK AO2 PK WND 32028/2110 SLP119 T03330083

Closest aviation forecast (TAF) to Abbott Northwestern Hospital Heliport

Closest forecast is Minneapolis–Saint Paul International Airport / Wold–Chamberlain Field, 4.7 nm (8.6 km) SSE. Retrieved 2021/07/24 18:33 UTC (4 hours ago):

TAF KMSP 241730Z 2418/2524 31009KT P6SM FEW030 FM242000 31012G21KT P6SM FEW250 FM250100 32010KT 6SM HZ FEW250 FM250500 28004KT 6SM HZ FEW250 FM251600 28009KT 6SM HZ FEW250